createdAt,value
2018-04-25T00:00:06.475Z,12.81
2018-04-25T00:02:36.715Z,12.80
2018-04-25T00:03:57.725Z,12.84
2018-04-25T00:04:36.729Z,12.85
2018-04-25T00:05:36.722Z,12.80
2018-04-25T00:06:36.323Z,12.87
2018-04-25T00:07:37.223Z,12.76
2018-04-25T00:08:39.654Z,12.77
2018-04-25T00:09:37.224Z,12.85
2018-04-25T00:10:37.728Z,12.63
2018-04-25T00:11:58.724Z,12.79
2018-04-25T00:12:38.720Z,12.71
2018-04-25T00:14:00.656Z,12.71
2018-04-25T00:14:38.222Z,12.69
2018-04-25T00:15:44.224Z,12.71
2018-04-25T00:16:38.222Z,12.67
2018-04-25T00:17:59.222Z,12.67
2018-04-25T00:18:38.721Z,12.71
2018-04-25T00:19:38.750Z,12.71
2018-04-25T00:20:38.721Z,12.63
2018-04-25T00:21:38.734Z,12.71
2018-04-25T00:24:10.476Z,12.70
2018-04-25T00:25:10.485Z,12.67
2018-04-25T00:26:09.964Z,12.62
2018-04-25T00:27:31.045Z,12.52
2018-04-25T00:28:12.425Z,12.43
2018-04-25T00:29:32.467Z,12.46
2018-04-25T00:30:31.990Z,12.41
2018-04-25T00:31:10.982Z,12.38
2018-04-25T00:32:17.561Z,12.31
2018-04-25T00:33:11.480Z,12.40
2018-04-25T00:34:13.481Z,12.29
2018-04-25T00:35:11.479Z,12.36
2018-04-25T00:36:17.980Z,12.37
2018-04-25T00:37:32.204Z,12.30
2018-04-25T00:38:11.980Z,12.34
2018-04-25T00:39:11.981Z,12.38
2018-04-25T00:40:13.932Z,12.37
2018-04-25T00:41:33.483Z,12.37
2018-04-25T00:42:12.482Z,12.34
2018-04-25T00:43:12.481Z,12.23
2018-04-25T00:44:12.485Z,12.22
2018-04-25T00:45:12.081Z,12.11
2018-04-25T00:47:44.335Z,12.07
2018-04-25T00:49:11.338Z,12.11
2018-04-25T00:49:44.344Z,12.04
2018-04-25T00:50:43.932Z,12.05
2018-04-25T00:51:44.839Z,12.00
2018-04-25T00:52:50.839Z,11.97
2018-04-25T00:53:44.847Z,12.00
2018-04-25T00:55:06.339Z,12.01
2018-04-25T00:55:47.271Z,11.97
2018-04-25T00:56:46.800Z,11.98
2018-04-25T00:58:06.338Z,12.05
2018-04-25T00:58:45.339Z,11.94
2018-04-25T00:59:51.838Z,11.94
2018-04-25T01:00:51.839Z,11.94
2018-04-25T01:01:47.839Z,11.97
2018-04-25T01:02:45.838Z,11.87
2018-04-25T01:03:47.336Z,11.87
2018-04-25T01:04:46.338Z,11.77
2018-04-25T01:05:46.337Z,11.81
2018-04-25T01:06:46.338Z,11.81
2018-04-25T01:07:46.839Z,11.74
2018-04-25T01:08:46.839Z,11.78
2018-04-25T01:09:46.842Z,11.75
2018-04-25T01:10:47.340Z,11.75
2018-04-25T01:11:47.443Z,11.69
2018-04-25T01:12:47.342Z,11.62
2018-04-25T01:13:47.345Z,11.67
2018-04-25T01:14:47.336Z,11.62
2018-04-25T01:17:19.106Z,11.60
2018-04-25T01:18:19.104Z,11.49
2018-04-25T01:19:19.101Z,11.53
2018-04-25T01:20:18.736Z,11.49
2018-04-25T01:21:20.536Z,11.46
2018-04-25T01:22:19.604Z,11.45
2018-04-25T01:23:19.601Z,11.46
2018-04-25T01:24:20.102Z,11.51
2018-04-25T01:25:21.052Z,11.54
2018-04-25T01:26:20.103Z,11.54
2018-04-25T01:27:20.112Z,11.54
2018-04-25T01:28:20.109Z,11.57
2018-04-25T01:29:19.711Z,11.53
2018-04-25T01:31:51.961Z,11.51
2018-04-25T01:32:51.971Z,11.48
2018-04-25T01:33:52.969Z,11.46
2018-04-25T01:35:13.470Z,11.38
2018-04-25T01:35:51.701Z,11.45
2018-04-25T01:36:52.468Z,11.42
2018-04-25T01:37:52.967Z,11.48
2018-04-25T01:38:52.071Z,11.39
2018-04-25T01:39:52.967Z,11.24
2018-04-25T01:40:52.969Z,11.39
2018-04-25T01:41:52.973Z,11.38
2018-04-25T01:42:52.589Z,11.42
2018-04-25T01:43:53.467Z,11.42
2018-04-25T01:44:53.468Z,11.44
2018-04-25T01:45:53.461Z,11.46
2018-04-25T01:47:14.964Z,11.46
2018-04-25T01:48:14.969Z,11.53
2018-04-25T01:49:14.973Z,11.49
2018-04-25T01:49:53.963Z,11.44
2018-04-25T01:52:25.708Z,11.48
2018-04-25T01:53:25.719Z,11.46
2018-04-25T01:54:26.219Z,11.48
2018-04-25T01:55:26.213Z,11.49
2018-04-25T01:56:26.214Z,11.49
2018-04-25T01:57:26.215Z,11.48
2018-04-25T01:58:40.714Z,11.45
2018-04-25T01:59:26.717Z,11.36
2018-04-25T02:01:58.207Z,11.36
2018-04-25T02:02:58.214Z,11.33
2018-04-25T02:03:58.215Z,11.30
2018-04-25T02:04:58.715Z,11.28
2018-04-25T02:05:58.710Z,11.38
2018-04-25T02:06:58.748Z,11.35
2018-04-25T02:07:58.717Z,11.31
2018-04-25T02:09:20.214Z,11.33
2018-04-25T02:09:59.217Z,11.35
2018-04-25T02:10:58.573Z,11.27
2018-04-25T02:11:59.244Z,11.28
2018-04-25T02:12:59.719Z,11.27
2018-04-25T02:13:59.713Z,11.30
2018-04-25T02:14:59.713Z,11.33
2018-04-25T02:15:59.716Z,11.30
2018-04-25T02:18:31.466Z,11.23
2018-04-25T02:19:30.820Z,11.19
2018-04-25T02:20:31.481Z,11.20
2018-04-25T02:21:52.976Z,11.24
2018-04-25T02:22:52.192Z,11.26
2018-04-25T02:23:31.976Z,11.21
2018-04-25T02:24:31.981Z,11.17
2018-04-25T02:25:32.476Z,11.17
2018-04-25T02:26:32.476Z,11.16
2018-04-25T02:27:33.476Z,11.06
2018-04-25T02:28:32.477Z,11.12
2018-04-25T02:29:32.976Z,11.17
2018-04-25T02:30:32.980Z,11.24
2018-04-25T02:31:32.975Z,11.24
2018-04-25T02:32:32.975Z,11.24
2018-04-25T02:33:33.480Z,11.24
2018-04-25T02:34:33.484Z,11.09
2018-04-25T02:35:53.812Z,11.23
2018-04-25T02:36:33.475Z,11.09
2018-04-25T02:37:54.976Z,11.12
2018-04-25T02:38:40.972Z,10.91
2018-04-25T02:39:39.977Z,11.06
2018-04-25T02:40:54.977Z,11.19
2018-04-25T02:41:55.474Z,11.08
2018-04-25T02:42:34.720Z,11.16
2018-04-25T02:43:40.475Z,11.11
2018-04-25T02:44:34.479Z,11.16
2018-04-25T02:45:55.977Z,11.13
2018-04-25T02:46:34.975Z,11.16
2018-04-25T02:47:55.907Z,11.03
2018-04-25T02:50:06.303Z,11.11
2018-04-25T02:51:07.999Z,11.08
2018-04-25T02:52:29.047Z,11.16
2018-04-25T02:53:07.049Z,11.16
2018-04-25T02:54:28.546Z,11.17
2018-04-25T02:55:07.543Z,11.11
2018-04-25T02:56:07.543Z,11.13
2018-04-25T02:57:07.543Z,11.17
2018-04-25T02:58:29.052Z,11.12
2018-04-25T02:59:08.044Z,11.09
2018-04-25T03:00:29.042Z,11.19
2018-04-25T03:01:08.043Z,11.16
2018-04-25T03:02:08.543Z,11.19
2018-04-25T03:03:29.543Z,11.23
2018-04-25T03:04:08.585Z,11.17
2018-04-25T03:05:08.543Z,11.21
2018-04-25T03:06:30.048Z,11.19
2018-04-25T03:07:09.041Z,11.19
2018-04-25T03:08:09.118Z,11.23
2018-04-25T03:09:09.043Z,11.20
2018-04-25T03:10:10.975Z,11.27
2018-04-25T03:11:09.572Z,11.24
2018-04-25T03:12:09.542Z,11.21
2018-04-25T03:13:09.543Z,11.24
2018-04-25T03:14:31.045Z,11.28
2018-04-25T03:15:10.049Z,11.30
2018-04-25T03:16:31.042Z,11.26
2018-04-25T03:17:12.516Z,11.30
2018-04-25T03:19:43.776Z,11.27
2018-04-25T03:20:41.786Z,11.33
2018-04-25T03:22:02.788Z,11.38
2018-04-25T03:22:41.383Z,11.30
2018-04-25T03:23:42.284Z,11.38
2018-04-25T03:24:42.282Z,11.24
2018-04-25T03:25:42.287Z,11.23
2018-04-25T03:28:35.520Z,11.17
2018-04-25T03:29:14.527Z,11.23
2018-04-25T03:30:14.539Z,11.24
2018-04-25T03:31:14.169Z,11.21
2018-04-25T03:32:15.027Z,11.27
2018-04-25T03:33:36.027Z,11.20
2018-04-25T03:34:15.060Z,11.21
2018-04-25T03:35:36.524Z,11.12
2018-04-25T03:36:36.524Z,11.20
2018-04-25T03:37:15.527Z,11.23
2018-04-25T03:38:15.001Z,11.23
2018-04-25T03:39:16.036Z,11.27
2018-04-25T03:40:37.028Z,11.23
2018-04-25T03:41:16.029Z,11.24
2018-04-25T03:42:16.025Z,11.24
2018-04-25T03:44:47.776Z,11.20
2018-04-25T03:45:47.783Z,11.24
2018-04-25T03:46:47.785Z,11.12
2018-04-25T03:47:48.284Z,11.26
2018-04-25T03:49:09.283Z,11.27
2018-04-25T03:49:48.283Z,11.24
2018-04-25T03:50:48.283Z,11.27
2018-04-25T03:51:48.783Z,11.27
2018-04-25T03:52:48.795Z,11.30
2018-04-25T03:53:48.780Z,11.38
2018-04-25T03:54:48.782Z,11.30
2018-04-25T03:55:49.285Z,11.28
2018-04-25T03:56:49.284Z,11.30
2018-04-25T03:57:50.223Z,11.30
2018-04-25T03:58:49.286Z,11.35
2018-04-25T03:59:49.283Z,11.28
2018-04-25T04:01:10.784Z,11.28
2018-04-25T04:01:49.784Z,11.27
2018-04-25T04:02:49.794Z,11.35
2018-04-25T04:03:50.779Z,11.27
2018-04-25T04:04:50.281Z,11.28
2018-04-25T04:07:21.649Z,11.27
2018-04-25T04:08:21.662Z,11.33
2018-04-25T04:09:21.654Z,11.30
2018-04-25T04:10:22.154Z,11.36
2018-04-25T04:11:22.153Z,11.42
2018-04-25T04:12:22.153Z,11.45
2018-04-25T04:13:22.153Z,11.41
2018-04-25T04:14:22.654Z,11.44
2018-04-25T04:15:22.654Z,11.31
2018-04-25T04:16:22.653Z,11.28
2018-04-25T04:17:22.729Z,11.33
2018-04-25T04:18:23.153Z,11.30
2018-04-25T04:19:43.376Z,11.36
2018-04-25T04:20:22.472Z,11.44
2018-04-25T04:21:23.153Z,11.46
2018-04-25T04:22:23.154Z,11.46
2018-04-25T04:23:23.652Z,11.48
2018-04-25T04:24:23.656Z,11.53
2018-04-25T04:25:23.653Z,11.53
2018-04-25T04:26:23.655Z,11.46
2018-04-25T04:27:45.153Z,11.45
2018-04-25T04:28:25.127Z,11.53
2018-04-25T04:29:24.153Z,11.51
2018-04-25T04:30:24.153Z,11.53
2018-04-25T04:31:24.653Z,11.64
2018-04-25T04:32:24.655Z,11.57
2018-04-25T04:33:24.652Z,11.64
2018-04-25T04:34:24.653Z,11.66
2018-04-25T04:35:46.155Z,11.60
2018-04-25T04:36:47.653Z,11.63
2018-04-25T04:37:25.151Z,11.74
2018-04-25T04:38:25.161Z,11.85
2018-04-25T04:39:46.659Z,11.79
2018-04-25T04:40:25.654Z,11.79
2018-04-25T04:41:27.085Z,11.82
2018-04-25T04:42:25.653Z,11.98
2018-04-25T04:43:27.120Z,11.98
2018-04-25T04:44:32.160Z,11.98
2018-04-25T04:45:27.151Z,12.00
2018-04-25T04:46:26.156Z,12.03
2018-04-25T04:48:57.924Z,12.08
2018-04-25T04:49:57.921Z,12.19
2018-04-25T04:50:57.920Z,12.25
2018-04-25T04:51:58.430Z,12.26
2018-04-25T04:53:19.426Z,12.36
2018-04-25T04:54:19.421Z,12.36
2018-04-25T04:54:59.431Z,12.49
2018-04-25T04:55:58.920Z,12.54
2018-04-25T04:56:58.920Z,12.67
2018-04-25T04:57:58.922Z,12.79
2018-04-25T04:58:58.923Z,12.62
2018-04-25T04:59:58.518Z,12.81
2018-04-25T05:00:59.420Z,12.85
2018-04-25T05:01:59.432Z,12.80
2018-04-25T05:02:59.429Z,12.85
2018-04-25T05:03:59.920Z,12.92
2018-04-25T05:04:59.142Z,12.92
2018-04-25T05:05:59.918Z,12.92
2018-04-25T05:07:20.921Z,13.04
2018-04-25T05:08:20.590Z,12.98
2018-04-25T05:09:00.927Z,13.07
2018-04-25T05:10:21.425Z,13.17
2018-04-25T05:11:01.853Z,13.25
2018-04-25T05:12:00.927Z,13.19
2018-04-25T05:13:21.928Z,13.32
2018-04-25T05:14:00.922Z,13.41
2018-04-25T05:15:00.927Z,13.36
2018-04-25T05:16:00.920Z,13.38
2018-04-25T05:18:46.661Z,13.47
2018-04-25T05:21:04.158Z,13.62
2018-04-25T05:22:04.185Z,13.54
2018-04-25T05:23:04.167Z,13.66
2018-04-25T05:24:25.770Z,13.69
2018-04-25T05:26:57.039Z,13.73
2018-04-25T05:27:36.046Z,13.76
2018-04-25T05:28:37.541Z,13.87
2018-04-25T05:31:07.922Z,14.02
2018-04-25T05:32:33.348Z,14.02
2018-04-25T05:33:07.916Z,14.08
2018-04-25T05:34:29.416Z,14.21
2018-04-25T05:35:08.417Z,14.19
2018-04-25T05:36:29.415Z,14.26
2018-04-25T05:37:08.413Z,14.26
2018-04-25T05:39:40.171Z,14.41
2018-04-25T05:40:40.180Z,14.34
2018-04-25T05:41:40.675Z,14.42
2018-04-25T05:42:40.675Z,14.49
2018-04-25T05:43:40.034Z,14.45
2018-04-25T05:44:40.683Z,14.48
2018-04-25T05:45:43.108Z,14.45
2018-04-25T05:46:43.175Z,14.60
2018-04-25T05:47:40.420Z,14.52
2018-04-25T05:50:12.002Z,14.60
2018-04-25T05:51:33.679Z,14.67
2018-04-25T05:52:12.679Z,14.79
2018-04-25T05:53:13.179Z,14.82
2018-04-25T05:54:34.179Z,14.75
2018-04-25T05:55:34.179Z,14.90
2018-04-25T05:56:36.115Z,14.91
2018-04-25T05:59:11.917Z,14.83
2018-04-25T05:59:44.921Z,14.93
2018-04-25T06:00:51.430Z,14.97
2018-04-25T06:01:45.424Z,14.87
2018-04-25T06:02:51.420Z,14.93
2018-04-25T06:03:45.424Z,14.86
2018-04-25T06:06:38.212Z,14.98
2018-04-25T06:07:16.695Z,14.97
2018-04-25T06:09:48.942Z,15.00
2018-04-25T06:10:49.950Z,15.15
2018-04-25T06:12:10.450Z,15.01
2018-04-25T06:12:48.674Z,15.11
2018-04-25T06:13:53.382Z,15.12
2018-04-25T06:14:49.447Z,15.20
2018-04-25T06:15:51.948Z,15.19
2018-04-25T06:16:49.175Z,15.23
2018-04-25T06:17:49.948Z,15.34
2018-04-25T06:18:49.948Z,15.33
2018-04-25T06:19:52.448Z,15.33
2018-04-25T06:20:50.448Z,15.28
2018-04-25T06:21:50.451Z,15.34
2018-04-25T06:22:51.457Z,15.35
2018-04-25T06:26:53.630Z,15.55
2018-04-25T06:27:53.637Z,15.53
2018-04-25T06:28:53.637Z,15.49
2018-04-25T06:29:54.144Z,15.55
2018-04-25T06:30:54.132Z,15.56
2018-04-25T06:31:56.137Z,15.64
2018-04-25T06:32:54.136Z,15.58
2018-04-25T06:34:15.649Z,15.60
2018-04-25T06:35:08.633Z,15.73
2018-04-25T06:35:54.638Z,15.68
2018-04-25T06:37:15.637Z,15.77
2018-04-25T06:37:55.140Z,15.66
2018-04-25T06:38:55.198Z,15.58
2018-04-25T06:39:55.138Z,15.56
2018-04-25T06:40:57.569Z,15.46
2018-04-25T06:41:55.137Z,15.62
2018-04-25T06:44:53.961Z,15.67
2018-04-25T06:46:58.881Z,15.76
2018-04-25T06:47:58.893Z,15.71
2018-04-25T06:48:58.896Z,15.74
2018-04-25T06:49:59.389Z,15.74
2018-04-25T06:50:58.616Z,15.81
2018-04-25T06:51:59.395Z,15.80
2018-04-25T06:53:00.332Z,15.80
2018-04-25T06:53:59.890Z,15.85
2018-04-25T06:56:32.749Z,15.71
2018-04-25T06:57:30.725Z,15.71
2018-04-25T06:58:51.805Z,15.71
2018-04-25T06:59:30.910Z,15.80
2018-04-25T07:02:03.179Z,15.91
2018-04-25T07:03:17.177Z,15.98
2018-04-25T07:04:02.657Z,15.96
2018-04-25T07:06:34.910Z,15.93
2018-04-25T07:07:34.909Z,16.06
2018-04-25T07:08:57.342Z,15.86
2018-04-25T07:11:06.688Z,15.88
2018-04-25T07:12:08.174Z,15.86
2018-04-25T07:14:39.760Z,15.74
2018-04-25T07:15:38.296Z,15.68
2018-04-25T07:16:38.314Z,15.78
2018-04-25T07:17:38.799Z,15.81
2018-04-25T07:18:38.799Z,15.89
2018-04-25T07:19:38.833Z,15.91
2018-04-25T07:20:38.808Z,15.91
2018-04-25T07:23:11.494Z,15.95
2018-04-25T07:24:11.995Z,15.95
2018-04-25T07:25:10.562Z,15.95
2018-04-25T07:26:10.562Z,15.99
2018-04-25T07:27:17.062Z,15.95
2018-04-25T07:28:11.067Z,15.99
2018-04-25T07:29:11.058Z,15.95
2018-04-25T07:30:11.060Z,16.03
2018-04-25T07:31:11.563Z,15.86
2018-04-25T07:32:25.567Z,16.04
2018-04-25T07:33:11.565Z,16.06
2018-04-25T07:34:11.568Z,15.96
2018-04-25T07:35:12.062Z,15.92
2018-04-25T07:36:18.068Z,16.03
2018-04-25T07:37:11.402Z,16.06
2018-04-25T07:38:12.063Z,15.95
2018-04-25T07:39:11.668Z,15.96
2018-04-25T07:40:12.566Z,15.93
2018-04-25T07:41:12.562Z,16.10
2018-04-25T07:42:12.561Z,16.01
2018-04-25T07:43:13.063Z,16.11
2018-04-25T07:44:13.068Z,15.99
2018-04-25T07:45:12.427Z,16.11
2018-04-25T07:46:13.063Z,16.18
2018-04-25T07:47:14.494Z,16.29
2018-04-25T07:48:13.559Z,16.40
2018-04-25T07:49:13.558Z,16.36
2018-04-25T07:50:13.037Z,16.36
2018-04-25T07:51:15.528Z,16.45
2018-04-25T07:52:14.134Z,16.59
2018-04-25T07:53:14.064Z,16.52
2018-04-25T07:54:15.030Z,16.50
2018-04-25T07:55:13.620Z,16.50
2018-04-25T07:56:28.570Z,16.48
2018-04-25T07:57:13.791Z,16.51
2018-04-25T07:58:13.890Z,16.55
2018-04-25T07:59:14.559Z,16.70
2018-04-25T08:00:14.993Z,16.69
2018-04-25T08:01:38.061Z,16.81
2018-04-25T08:02:17.011Z,16.67
2018-04-25T08:03:14.416Z,16.67
2018-04-25T08:07:06.686Z,16.81
2018-04-25T08:07:43.721Z,16.69
2018-04-25T08:09:10.693Z,16.72
2018-04-25T08:10:05.192Z,16.57
2018-04-25T08:10:44.193Z,16.48
2018-04-25T08:11:44.194Z,16.52
2018-04-25T08:12:44.194Z,16.55
2018-04-25T08:13:47.125Z,16.70
2018-04-25T08:14:43.913Z,16.87
2018-04-25T08:15:44.694Z,16.90
2018-04-25T08:16:44.692Z,17.03
2018-04-25T08:17:47.198Z,17.07
2018-04-25T08:18:45.196Z,17.05
2018-04-25T08:19:44.537Z,17.10
2018-04-25T08:20:44.639Z,17.36
2018-04-25T08:21:45.691Z,17.62
2018-04-25T08:22:51.744Z,17.86
2018-04-25T08:23:44.933Z,18.01
2018-04-25T08:24:45.692Z,17.89
2018-04-25T08:25:45.169Z,18.05
2018-04-25T08:26:53.124Z,18.05
2018-04-25T08:28:06.393Z,18.35
2018-04-25T08:28:46.193Z,18.51
2018-04-25T08:29:47.192Z,18.54
2018-04-25T08:30:46.692Z,18.59
2018-04-25T08:31:46.692Z,18.54
2018-04-25T08:33:09.654Z,18.65
2018-04-25T08:33:46.698Z,18.50
2018-04-25T08:35:07.303Z,18.23
2018-04-25T08:35:47.193Z,18.46
2018-04-25T08:38:18.704Z,18.38
2018-04-25T08:39:18.793Z,18.60
2018-04-25T08:40:18.342Z,18.59
2018-04-25T08:41:22.643Z,18.54
2018-04-25T08:42:19.240Z,18.65
2018-04-25T08:43:19.715Z,18.49
2018-04-25T08:45:50.981Z,18.21
2018-04-25T08:47:11.990Z,18.04
2018-04-25T08:47:50.590Z,18.04
2018-04-25T08:48:51.492Z,17.73
2018-04-25T08:49:52.483Z,17.73
2018-04-25T08:50:51.481Z,17.42
2018-04-25T08:51:51.986Z,17.36
2018-04-25T08:53:18.991Z,17.25
2018-04-25T08:53:51.984Z,17.25
2018-04-25T08:54:51.986Z,17.24
2018-04-25T08:55:51.604Z,17.12
2018-04-25T08:57:06.482Z,17.12
2018-04-25T08:57:52.501Z,17.06
2018-04-25T08:59:13.564Z,17.17
2018-04-25T08:59:52.088Z,17.28
2018-04-25T09:02:24.356Z,17.51
2018-04-25T09:03:24.376Z,17.57
2018-04-25T09:04:25.841Z,17.53
2018-04-25T09:05:30.862Z,17.57
2018-04-25T09:06:24.860Z,17.47
2018-04-25T09:07:24.338Z,17.49
2018-04-25T09:11:49.343Z,17.00
2018-04-25T09:12:30.349Z,16.92
2018-04-25T09:13:28.353Z,16.82
2018-04-25T09:14:30.848Z,16.77
2018-04-25T09:15:28.137Z,16.77
2018-04-25T09:16:28.849Z,16.77
2018-04-25T09:17:30.308Z,16.98
2018-04-25T09:18:31.359Z,17.09
2018-04-25T09:19:31.353Z,17.18
2018-04-25T09:20:32.284Z,17.30
2018-04-25T09:23:00.862Z,17.40
2018-04-25T09:24:00.218Z,17.57
2018-04-25T09:25:00.866Z,17.57
2018-04-25T09:26:00.461Z,17.60
2018-04-25T09:28:53.720Z,17.45
2018-04-25T09:29:38.727Z,17.45
2018-04-25T09:30:32.731Z,17.47
2018-04-25T09:31:56.201Z,17.39
2018-04-25T09:34:05.060Z,17.10
2018-04-25T09:35:04.594Z,17.07
2018-04-25T09:36:04.590Z,17.15
2018-04-25T09:37:27.550Z,17.02
2018-04-25T09:38:07.094Z,16.91
2018-04-25T09:39:27.533Z,16.95
2018-04-25T09:41:58.484Z,16.82
2018-04-25T09:42:36.019Z,16.72
2018-04-25T09:43:37.060Z,16.67
2018-04-25T09:44:38.484Z,16.59
2018-04-25T09:45:37.053Z,16.57
2018-04-25T09:46:37.137Z,16.52
2018-04-25T09:47:39.556Z,16.62
2018-04-25T09:48:36.793Z,16.55
2018-04-25T09:49:58.551Z,16.55
2018-04-25T09:50:37.560Z,16.55
2018-04-25T09:51:44.048Z,16.65
2018-04-25T09:54:10.869Z,16.69
2018-04-25T09:55:09.403Z,16.77
2018-04-25T09:56:09.006Z,16.98
2018-04-25T09:58:41.259Z,17.46
2018-04-25T10:01:40.708Z,17.79
2018-04-25T10:04:07.386Z,18.26
2018-04-25T10:05:05.385Z,18.17
2018-04-25T10:05:44.367Z,18.07
2018-04-25T10:11:42.805Z,18.28
2018-04-25T10:12:42.813Z,18.31
2018-04-25T10:13:19.812Z,18.56
2018-04-25T10:14:21.252Z,18.69
2018-04-25T10:15:20.343Z,18.89
2018-04-25T10:16:20.309Z,19.16
2018-04-25T10:18:53.830Z,19.53
2018-04-25T10:20:05.833Z,19.49
2018-04-25T10:20:51.833Z,19.62
2018-04-25T10:21:51.435Z,19.57
2018-04-25T10:23:13.334Z,19.52
2018-04-25T10:23:52.349Z,19.78
2018-04-25T10:29:31.123Z,19.46
2018-04-25T10:30:27.071Z,19.38
2018-04-25T10:31:27.719Z,19.39
2018-04-25T10:32:30.191Z,19.23
2018-04-25T10:33:49.196Z,19.24
2018-04-25T10:34:29.643Z,19.16
2018-04-25T10:35:29.193Z,19.09
2018-04-25T10:37:59.943Z,19.58
2018-04-25T10:38:59.999Z,19.87
2018-04-25T10:41:45.709Z,20.01
2018-04-25T10:42:31.720Z,19.78
2018-04-25T10:43:31.720Z,19.57
2018-04-25T10:44:31.337Z,19.31
2018-04-25T10:45:31.439Z,18.96
2018-04-25T10:46:56.223Z,18.90
2018-04-25T10:47:32.221Z,18.89
2018-04-25T10:50:03.984Z,18.59
2018-04-25T10:51:06.922Z,18.56
2018-04-25T10:52:04.488Z,18.62
2018-04-25T10:54:49.866Z,18.05
2018-04-25T10:55:38.807Z,18.11
2018-04-25T10:56:35.873Z,18.02
2018-04-25T10:57:42.373Z,17.91
2018-04-25T10:58:37.828Z,18.04
2018-04-25T10:59:36.392Z,17.92
2018-04-25T11:00:35.769Z,17.79
2018-04-25T11:01:36.376Z,17.73
2018-04-25T11:02:59.391Z,17.70
2018-04-25T11:03:36.875Z,17.32
2018-04-25T11:04:58.875Z,17.02
2018-04-25T11:05:38.877Z,16.72
2018-04-25T11:06:58.383Z,16.57
2018-04-25T11:07:51.393Z,16.50
2018-04-25T11:08:37.385Z,16.14
2018-04-25T11:09:37.443Z,16.07
2018-04-25T11:12:10.562Z,15.86
2018-04-25T11:13:29.514Z,15.74
2018-04-25T11:15:09.096Z,15.33
2018-04-25T11:16:09.142Z,15.19
2018-04-25T11:17:09.107Z,15.18
2018-04-25T11:18:09.590Z,15.35
2018-04-25T11:19:10.045Z,15.48
2018-04-25T11:20:09.590Z,15.37
2018-04-25T11:22:09.594Z,15.77
2018-04-25T11:23:11.074Z,16.04
2018-04-25T11:24:10.096Z,16.40
2018-04-25T11:25:10.105Z,16.52
2018-04-25T11:26:10.509Z,16.48
2018-04-25T11:27:10.072Z,16.47
2018-04-25T11:35:48.913Z,16.32
2018-04-25T11:36:50.348Z,16.25
2018-04-25T11:37:48.459Z,16.07
2018-04-25T11:41:58.641Z,16.27
2018-04-25T11:44:38.022Z,16.42
2018-04-25T11:45:25.989Z,16.65
2018-04-25T11:46:24.021Z,16.47
2018-04-25T11:47:30.538Z,16.41
2018-04-25T11:48:24.521Z,16.33
2018-04-25T11:49:31.519Z,16.41
2018-04-25T11:50:24.522Z,16.40
2018-04-25T11:53:17.272Z,16.23
2018-04-25T11:53:56.284Z,16.25
2018-04-25T11:55:17.785Z,16.22
2018-04-25T11:57:30.662Z,16.10
2018-04-25T11:58:50.662Z,16.10
2018-04-25T11:59:28.693Z,16.11
2018-04-25T12:02:20.694Z,16.27
2018-04-25T12:03:00.454Z,16.60
2018-04-25T12:04:21.464Z,16.73
2018-04-25T12:05:07.015Z,16.92
2018-04-25T12:06:02.953Z,17.02
2018-04-25T12:08:32.504Z,17.18
2018-04-25T12:09:32.472Z,18.10
2018-04-25T12:10:33.930Z,18.17
2018-04-25T12:11:53.966Z,18.96
2018-04-25T12:13:53.304Z,20.96
2018-04-25T12:16:27.098Z,21.70
2018-04-25T12:18:36.540Z,19.72
2018-04-25T12:19:57.486Z,19.32
2018-04-25T12:25:11.931Z,18.05
2018-04-25T12:26:33.935Z,18.02
2018-04-25T12:27:11.937Z,17.81
2018-04-25T12:29:45.131Z,17.20
2018-04-25T12:30:44.199Z,17.06
2018-04-25T12:32:11.199Z,17.02
2018-04-25T12:32:44.209Z,16.84
2018-04-25T12:33:44.403Z,16.77
2018-04-25T12:39:10.036Z,16.66
2018-04-25T12:43:14.890Z,16.72
2018-04-25T12:45:44.524Z,15.95
2018-04-25T12:46:44.538Z,15.91
2018-04-25T12:47:47.038Z,16.17
2018-04-25T12:48:46.033Z,16.23
2018-04-25T12:49:45.036Z,16.41
2018-04-25T12:50:44.512Z,16.52
2018-04-25T12:53:16.409Z,16.57
2018-04-25T12:54:17.277Z,16.59
2018-04-25T12:55:31.281Z,16.87
2018-04-25T12:56:17.282Z,16.82
2018-04-25T12:57:16.881Z,16.82
2018-04-25T12:58:17.780Z,16.87
2018-04-25T12:59:17.784Z,17.18
2018-04-25T13:00:17.794Z,17.55
2018-04-25T13:02:49.556Z,17.53
2018-04-25T13:03:52.044Z,17.55
2018-04-25T13:04:50.070Z,17.54
2018-04-25T13:07:41.717Z,17.62
2018-04-25T13:08:21.461Z,17.45
2018-04-25T13:09:43.387Z,17.38
2018-04-25T13:10:21.955Z,17.47
2018-04-25T13:12:53.357Z,17.22
2018-04-25T13:15:30.964Z,17.10
2018-04-25T13:16:24.974Z,17.05
2018-04-25T13:17:25.483Z,16.98
2018-04-25T13:18:24.711Z,17.02
2018-04-25T13:19:25.476Z,16.87
2018-04-25T13:20:46.476Z,16.85
2018-04-25T13:22:57.235Z,16.91
2018-04-25T13:24:18.248Z,16.98
2018-04-25T13:24:57.242Z,16.98
2018-04-25T13:27:29.034Z,16.82
2018-04-25T13:28:29.052Z,16.80
2018-04-25T13:29:28.524Z,16.85
2018-04-25T13:30:56.539Z,16.88
2018-04-25T13:31:50.542Z,16.95
2018-04-25T13:32:50.541Z,17.00
2018-04-25T13:33:29.542Z,17.21
2018-04-25T13:34:36.052Z,17.09
2018-04-25T13:35:30.042Z,17.20
2018-04-25T13:36:51.047Z,17.51
2018-04-25T13:37:30.041Z,17.62
2018-04-25T13:38:29.643Z,17.74
2018-04-25T13:39:31.474Z,17.68
2018-04-25T13:40:44.541Z,17.77
2018-04-25T13:41:44.541Z,17.99
2018-04-25T13:42:51.544Z,18.11
2018-04-25T13:45:29.308Z,18.93
2018-04-25T13:46:02.301Z,19.01
2018-04-25T13:47:24.799Z,19.42
2018-04-25T13:48:23.808Z,20.07
2018-04-25T13:50:49.760Z,22.82
2018-04-25T13:51:35.297Z,23.53
2018-04-25T13:52:55.334Z,24.09
2018-04-25T13:53:34.828Z,24.59
2018-04-25T13:54:34.828Z,24.56
2018-04-25T13:55:34.856Z,24.94
2018-04-25T13:56:57.833Z,25.14
2018-04-25T13:57:35.332Z,24.93
2018-04-25T13:58:35.338Z,25.08
2018-04-25T13:59:35.328Z,25.09
2018-04-25T14:00:35.328Z,24.48
2018-04-25T14:03:28.101Z,25.53
2018-04-25T14:04:07.118Z,24.48
2018-04-25T14:05:06.752Z,24.55
2018-04-25T14:06:07.634Z,24.77
2018-04-25T14:07:09.544Z,25.45
2018-04-25T14:08:07.620Z,26.09
2018-04-25T14:09:31.118Z,26.72
2018-04-25T14:11:38.913Z,25.60
2018-04-25T14:12:39.538Z,25.60
2018-04-25T14:13:39.152Z,24.92
2018-04-25T14:17:42.266Z,23.77
2018-04-25T14:19:04.971Z,24.46
2018-04-25T14:21:14.623Z,25.94
2018-04-25T14:22:14.629Z,24.93
2018-04-25T14:23:14.633Z,24.84
2018-04-25T14:24:15.130Z,24.94
2018-04-25T14:25:37.099Z,24.63
2018-04-25T14:26:17.566Z,23.93
2018-04-25T14:27:18.631Z,23.16
2018-04-25T14:28:15.631Z,22.20
2018-04-25T14:29:36.634Z,21.55
2018-04-25T14:30:17.662Z,21.18
2018-04-25T14:31:15.633Z,20.78
2018-04-25T14:32:18.140Z,20.27
2018-04-25T14:33:22.138Z,19.92
2018-04-25T14:34:16.139Z,19.71
2018-04-25T14:35:37.137Z,19.47
2018-04-25T14:36:16.630Z,19.07
2018-04-25T14:37:16.636Z,18.84
2018-04-25T14:39:16.136Z,18.21
2018-04-25T14:40:16.631Z,17.96
2018-04-25T14:41:16.631Z,17.87
2018-04-25T14:42:16.636Z,17.76
2018-04-25T14:43:16.629Z,17.58
2018-04-25T14:44:16.763Z,17.43
2018-04-25T14:45:17.137Z,17.51
2018-04-25T14:46:18.605Z,17.25
2018-04-25T14:47:17.084Z,17.02
2018-04-25T14:48:17.643Z,16.99
2018-04-25T14:49:17.631Z,17.18
2018-04-25T14:50:17.631Z,17.27
2018-04-25T14:51:17.630Z,17.98
2018-04-25T14:52:17.632Z,18.56
2018-04-25T14:53:18.129Z,19.12
2018-04-25T14:54:18.128Z,19.50
2018-04-25T14:55:18.132Z,19.35
2018-04-25T14:56:18.107Z,19.32
2018-04-25T14:57:18.631Z,19.50
2018-04-25T14:58:18.636Z,19.68
2018-04-25T14:59:18.639Z,19.87
2018-04-25T15:03:17.925Z,20.27
2018-04-25T15:04:15.864Z,19.83
2018-04-25T15:04:50.933Z,19.46
2018-04-25T15:05:51.435Z,19.21
2018-04-25T15:08:22.851Z,18.46
2018-04-25T15:09:22.858Z,18.41
2018-04-25T15:10:23.859Z,18.20
2018-04-25T15:13:17.091Z,17.89
2018-04-25T15:13:56.569Z,17.81
2018-04-25T15:18:03.774Z,17.63
2018-04-25T15:18:57.133Z,17.66
2018-04-25T15:19:57.809Z,17.46
2018-04-25T15:22:50.554Z,17.57
2018-04-25T15:23:29.563Z,17.25
2018-04-25T15:24:29.575Z,17.33
2018-04-25T15:25:33.075Z,17.46
2018-04-25T15:28:00.734Z,17.42
2018-04-25T15:29:01.459Z,17.18
2018-04-25T15:30:01.458Z,17.09
2018-04-25T15:31:23.962Z,17.03
2018-04-25T15:32:23.029Z,17.00
2018-04-25T15:33:22.956Z,16.82
2018-04-25T15:34:01.955Z,16.80
2018-04-25T15:38:25.411Z,16.78
2018-04-25T15:42:08.132Z,16.66
2018-04-25T15:43:08.134Z,16.63
2018-04-25T15:44:33.071Z,16.51